Time;durP1;ratioP1;P1;durP2;ratioP2;P2;SDS_P1;SDS_P2;PMS_P1;PMS_P2;Temp;Humidity;BMP_temperature;BMP_pressure;BME280_temperature;BME280_humidity;BME280_pressure;Samples;Min_cycle;Max_cycle;Signal;HPM_P1;HPM_P2
2022/06/08 00:01:47;;;;;;;1.93;1.83;;;13.40;99.90;;;;;;494601;240;28098;-73
2022/06/08 00:03:49;;;;;;;1.90;1.80;;;13.50;99.90;;;;;;494591;240;28300;-73
2022/06/08 00:05:50;;;;;;;1.73;1.63;;;13.40;99.90;;;;;;494571;240;28181;-73
2022/06/08 00:07:51;;;;;;;1.70;1.70;;;13.40;99.90;;;;;;494591;240;28832;-75
2022/06/08 00:09:52;;;;;;;1.90;1.80;;;13.40;99.90;;;;;;494583;240;28195;-73
2022/06/08 00:11:54;;;;;;;2.30;2.10;;;13.30;99.90;;;;;;494594;240;28534;-73
2022/06/08 00:13:55;;;;;;;2.20;2.00;;;13.30;99.90;;;;;;494611;240;28562;-73
2022/06/08 00:15:57;;;;;;;2.00;1.90;;;13.30;99.90;;;;;;494590;240;28877;-72
2022/06/08 00:17:57;;;;;;;2.30;1.83;;;13.30;99.90;;;;;;494648;240;28814;-75
2022/06/08 00:19:59;;;;;;;2.00;1.90;;;13.20;99.90;;;;;;494582;240;28195;-73
2022/06/08 00:22:00;;;;;;;2.00;1.90;;;13.20;99.90;;;;;;494631;240;28196;-73
2022/06/08 00:24:01;;;;;;;2.67;1.70;;;13.30;99.90;;;;;;494601;240;28487;-73
2022/06/08 00:26:02;;;;;;;2.07;1.97;;;13.20;99.90;;;;;;494587;240;28280;-73
2022/06/08 00:28:04;;;;;;;2.10;1.90;;;13.20;99.90;;;;;;494624;240;28081;-75
2022/06/08 00:30:05;;;;;;;2.17;2.07;;;13.20;99.90;;;;;;494574;240;28702;-72
2022/06/08 00:32:06;;;;;;;2.10;1.90;;;13.20;99.90;;;;;;494579;240;28207;-73
2022/06/08 00:34:08;;;;;;;1.70;1.60;;;13.20;99.90;;;;;;494599;240;28579;-73
2022/06/08 00:36:09;;;;;;;1.73;1.63;;;13.20;99.90;;;;;;494586;240;29268;-73
2022/06/08 00:38:10;;;;;;;2.10;1.67;;;13.10;99.90;;;;;;494624;240;28604;-75
2022/06/08 00:40:11;;;;;;;1.90;1.80;;;13.10;99.90;;;;;;494575;240;29057;-72
2022/06/08 00:42:12;;;;;;;1.70;1.60;;;13.10;99.90;;;;;;494579;240;28711;-74
2022/06/08 00:44:14;;;;;;;1.80;1.73;;;13.10;99.90;;;;;;494590;240;28138;-73
2022/06/08 00:46:15;;;;;;;1.87;1.70;;;13.10;99.90;;;;;;494583;240;28751;-73
2022/06/08 00:48:16;;;;;;;2.00;1.87;;;13.10;99.90;;;;;;494609;240;28221;-75
2022/06/08 00:50:17;;;;;;;1.97;1.87;;;13.00;99.90;;;;;;494576;240;28269;-74
2022/06/08 00:52:19;;;;;;;1.93;1.83;;;13.00;99.90;;;;;;494588;240;28430;-73
2022/06/08 00:54:20;;;;;;;1.77;1.63;;;13.00;99.90;;;;;;494553;240;28268;-73
2022/06/08 00:56:21;;;;;;;1.73;1.73;;;13.00;99.90;;;;;;494561;240;29128;-73
2022/06/08 00:58:24;;;;;;;1.50;1.50;;;13.00;99.90;;;;;;494616;240;28106;-75
2022/06/08 01:00:24;;;;;;;1.80;1.70;;;13.00;99.90;;;;;;494478;240;28867;-73
2022/06/08 01:02:25;;;;;;;1.80;1.80;;;13.00;99.90;;;;;;494594;240;28586;-73
2022/06/08 01:04:26;;;;;;;1.80;1.70;;;13.00;99.90;;;;;;494561;240;28520;-73
2022/06/08 01:06:27;;;;;;;1.70;1.70;;;12.90;99.90;;;;;;494563;240;28275;-73
2022/06/08 01:08:29;;;;;;;1.70;1.60;;;12.90;99.90;;;;;;494593;240;28304;-74
2022/06/08 01:10:30;;;;;;;1.70;1.60;;;12.90;99.90;;;;;;494566;240;28719;-73
2022/06/08 01:12:31;;;;;;;1.63;1.53;;;12.90;99.90;;;;;;494596;240;28232;-74
2022/06/08 01:14:33;;;;;;;1.80;1.70;;;12.80;99.90;;;;;;494578;240;27984;-73
2022/06/08 01:16:34;;;;;;;1.50;1.50;;;12.80;99.90;;;;;;494556;240;28764;-73
2022/06/08 01:18:35;;;;;;;1.60;1.60;;;12.80;99.90;;;;;;494588;240;28308;-73
2022/06/08 01:20:36;;;;;;;1.73;1.63;;;12.80;99.90;;;;;;494576;240;28193;-73
2022/06/08 01:22:38;;;;;;;1.83;1.73;;;12.80;99.90;;;;;;494577;240;29011;-73
2022/06/08 01:24:39;;;;;;;1.90;1.80;;;12.70;99.90;;;;;;494565;240;30109;-73
2022/06/08 01:26:40;;;;;;;4.60;1.83;;;12.70;99.90;;;;;;494564;240;28664;-73
2022/06/08 01:28:41;;;;;;;1.90;1.80;;;12.60;99.90;;;;;;494611;240;28624;-73
2022/06/08 01:30:43;;;;;;;2.63;2.30;;;12.70;99.90;;;;;;494554;240;28324;-72
2022/06/08 01:32:44;;;;;;;2.30;2.10;;;12.70;99.90;;;;;;494569;240;28091;-73
2022/06/08 01:34:45;;;;;;;2.37;2.27;;;12.60;99.90;;;;;;494593;240;28217;-74
2022/06/08 01:36:46;;;;;;;2.00;1.90;;;12.60;99.90;;;;;;494581;240;28287;-73
2022/06/08 01:38:48;;;;;;;1.90;1.80;;;12.60;99.90;;;;;;494566;240;28745;-74
2022/06/08 01:40:49;;;;;;;1.77;1.70;;;12.70;99.90;;;;;;494560;240;28268;-72
2022/06/08 01:42:50;;;;;;;1.80;1.70;;;12.80;99.90;;;;;;494580;240;28727;-73
2022/06/08 01:47:11;;;;;;;1.80;1.70;;;12.90;99.90;;;;;;494582;240;28733;-72
2022/06/08 01:49:12;;;;;;;1.50;1.50;;;12.90;99.90;;;;;;494615;240;28708;-72
2022/06/08 01:51:13;;;;;;;1.60;1.50;;;13.00;99.90;;;;;;494551;240;28691;-72
2022/06/08 01:53:14;;;;;;;4.03;1.80;;;12.90;99.90;;;;;;494566;240;28181;-73
2022/06/08 01:55:16;;;;;;;1.80;1.70;;;12.80;99.90;;;;;;494610;240;28734;-73
2022/06/08 01:57:17;;;;;;;2.00;1.90;;;12.70;99.90;;;;;;494616;240;28469;-73
2022/06/08 01:59:18;;;;;;;2.00;1.90;;;12.70;99.90;;;;;;494615;240;28395;-73
2022/06/08 02:01:19;;;;;;;1.70;1.60;;;12.70;99.90;;;;;;494558;240;27975;-72
2022/06/08 02:03:21;;;;;;;1.80;1.70;;;12.50;99.90;;;;;;494573;240;28057;-72
2022/06/08 02:05:22;;;;;;;3.00;1.90;;;12.60;99.90;;;;;;494613;240;28728;-75
2022/06/08 02:07:23;;;;;;;2.40;1.73;;;12.60;99.90;;;;;;494592;240;28422;-73
2022/06/08 02:09:24;;;;;;;2.20;2.10;;;12.60;99.90;;;;;;494619;240;29003;-73
2022/06/08 02:11:26;;;;;;;2.27;2.07;;;12.60;99.90;;;;;;494578;240;28563;-73
2022/06/08 02:13:27;;;;;;;2.20;2.10;;;12.60;99.90;;;;;;494578;240;28837;-72
2022/06/08 02:15:28;;;;;;;2.00;1.90;;;12.60;99.90;;;;;;494574;240;29280;-73
2022/06/08 02:17:29;;;;;;;4.00;1.97;;;12.60;99.90;;;;;;494555;240;28160;-73
2022/06/08 02:19:31;;;;;;;2.40;1.97;;;12.60;99.90;;;;;;494504;240;28816;-73
2022/06/08 02:21:32;;;;;;;2.17;2.00;;;12.60;99.90;;;;;;494468;240;28073;-72
2022/06/08 02:23:35;;;;;;;2.50;2.30;;;12.60;99.90;;;;;;494514;240;28180;-73
2022/06/08 02:25:34;;;;;;;2.83;1.90;;;12.60;99.90;;;;;;494407;240;28433;-73
2022/06/08 02:27:36;;;;;;;2.50;2.30;;;12.60;99.90;;;;;;494545;240;27923;-72
2022/06/08 02:29:37;;;;;;;3.43;2.20;;;12.60;99.90;;;;;;494555;240;28555;-73
2022/06/08 02:31:38;;;;;;;2.30;2.10;;;12.70;99.90;;;;;;494520;240;28777;-72
2022/06/08 02:35:59;;;;;;;2.00;1.80;;;12.70;99.90;;;;;;494580;240;28804;-73
2022/06/08 02:38:00;;;;;;;2.30;2.20;;;12.80;99.90;;;;;;494602;240;28591;-72
2022/06/08 02:40:02;;;;;;;2.17;2.07;;;12.60;99.90;;;;;;494581;240;28844;-73
2022/06/08 02:42:03;;;;;;;2.10;1.90;;;12.60;99.90;;;;;;494553;240;28062;-72
2022/06/08 02:44:04;;;;;;;1.97;1.87;;;12.60;99.90;;;;;;494589;240;28508;-73
2022/06/08 02:46:05;;;;;;;2.27;2.07;;;12.70;99.90;;;;;;494588;240;28129;-75
2022/06/08 02:48:09;;;;;;;3.10;1.80;;;12.70;99.90;;;;;;494609;240;28339;-73
2022/06/08 02:50:08;;;;;;;2.40;1.80;;;12.70;99.90;;;;;;494464;240;27998;-73
2022/06/08 02:52:09;;;;;;;2.30;2.10;;;12.70;99.90;;;;;;494587;240;28393;-72
2022/06/08 02:54:10;;;;;;;1.73;1.73;;;12.70;99.90;;;;;;494589;240;28744;-73
2022/06/08 02:56:12;;;;;;;1.93;1.80;;;12.70;99.90;;;;;;494567;240;28985;-74
2022/06/08 02:58:13;;;;;;;2.40;2.20;;;12.70;99.90;;;;;;494595;240;28799;-73
2022/06/08 03:00:14;;;;;;;1.70;1.70;;;12.70;99.90;;;;;;494594;240;28622;-73
2022/06/08 03:02:15;;;;;;;2.10;2.00;;;12.60;99.90;;;;;;494547;240;28686;-73
2022/06/08 03:04:17;;;;;;;2.13;2.00;;;12.60;99.90;;;;;;494614;240;28335;-73
2022/06/08 03:06:18;;;;;;;1.70;1.70;;;12.60;99.90;;;;;;494556;240;28003;-77
2022/06/08 03:08:19;;;;;;;2.00;1.90;;;12.60;99.90;;;;;;494604;240;28335;-72
2022/06/08 03:10:20;;;;;;;2.10;2.00;;;12.60;99.90;;;;;;494610;240;28358;-73
2022/06/08 03:12:22;;;;;;;1.80;1.70;;;12.60;99.90;;;;;;494581;240;28720;-73
2022/06/08 03:14:23;;;;;;;2.30;2.10;;;12.60;99.90;;;;;;494599;240;28076;-73
2022/06/08 03:16:24;;;;;;;1.90;1.80;;;12.70;99.90;;;;;;494575;240;28587;-74
2022/06/08 03:18:25;;;;;;;1.80;1.70;;;12.70;99.90;;;;;;494639;240;28708;-73
2022/06/08 03:20:28;;;;;;;2.03;1.93;;;;;;;;;;494599;240;29287;-73
2022/06/08 03:22:29;;;;;;;1.80;1.70;;;12.70;99.90;;;;;;494602;240;27088;-73
2022/06/08 03:24:30;;;;;;;2.20;2.10;;;12.80;99.90;;;;;;494635;240;29099;-75
2022/06/08 03:26:32;;;;;;;1.90;1.80;;;12.80;99.90;;;;;;494594;240;28704;-73
2022/06/08 03:28:33;;;;;;;1.90;1.80;;;12.90;99.90;;;;;;494596;240;28847;-73
2022/06/08 03:30:34;;;;;;;2.50;1.73;;;12.90;99.90;;;;;;494611;240;28656;-73
2022/06/08 03:32:35;;;;;;;1.57;1.47;;;12.90;99.90;;;;;;494548;240;28800;-73
2022/06/08 03:34:37;;;;;;;2.10;2.00;;;12.90;99.90;;;;;;494593;240;28922;-73
2022/06/08 03:36:38;;;;;;;1.97;1.80;;;13.00;99.90;;;;;;494599;240;28635;-73
2022/06/08 03:38:42;;;;;;;1.67;1.60;;;13.00;99.90;;;;;;494604;240;28486;-74
2022/06/08 03:40:40;;;;;;;1.90;1.80;;;13.10;99.90;;;;;;494417;240;28188;-73
2022/06/08 03:42:42;;;;;;;1.97;1.87;;;13.10;99.90;;;;;;494569;240;28165;-73
2022/06/08 03:44:43;;;;;;;2.10;1.60;;;13.10;99.90;;;;;;494608;240;28708;-73
2022/06/08 03:46:45;;;;;;;4.67;1.73;;;;;;;;;;494557;240;28519;-73
2022/06/08 03:48:47;;;;;;;2.50;1.73;;;13.10;99.90;;;;;;494587;240;26974;-73
2022/06/08 03:50:48;;;;;;;2.27;2.07;;;13.10;99.90;;;;;;494486;240;28185;-73
2022/06/08 03:52:49;;;;;;;1.93;1.83;;;13.10;99.90;;;;;;494325;240;28231;-74
2022/06/08 03:54:50;;;;;;;1.60;1.60;;;13.20;99.90;;;;;;494610;240;28167;-73
2022/06/08 03:56:52;;;;;;;2.20;2.00;;;13.30;99.90;;;;;;494491;240;28275;-74
2022/06/08 03:58:53;;;;;;;1.77;1.67;;;13.30;99.90;;;;;;494570;240;28153;-72
2022/06/08 04:00:54;;;;;;;2.03;1.93;;;13.40;99.90;;;;;;494580;240;28335;-73
2022/06/08 04:02:55;;;;;;;1.70;1.60;;;13.40;99.90;;;;;;494583;240;28544;-75
2022/06/08 04:04:57;;;;;;;1.80;1.70;;;13.40;99.90;;;;;;494613;240;28326;-73
2022/06/08 04:06:58;;;;;;;2.10;2.00;;;13.40;99.90;;;;;;494731;235;28298;-72
2022/06/08 04:08:59;;;;;;;1.90;1.80;;;13.40;99.90;;;;;;494305;239;28852;-74
2022/06/08 04:11:00;;;;;;;2.20;2.10;;;13.40;99.90;;;;;;490394;241;28769;-74
2022/06/08 04:13:02;;;;;;;2.30;2.20;;;13.40;99.90;;;;;;492915;240;28681;-75
2022/06/08 04:15:03;;;;;;;2.37;2.27;;;13.30;99.90;;;;;;492996;240;28104;-73
2022/06/08 04:17:04;;;;;;;2.20;2.10;;;13.30;99.90;;;;;;492901;240;28284;-74
2022/06/08 04:19:05;;;;;;;2.53;2.33;;;13.20;99.90;;;;;;492910;240;28181;-73
2022/06/08 04:21:07;;;;;;;1.90;1.80;;;13.30;99.90;;;;;;492928;240;28288;-74
2022/06/08 04:23:08;;;;;;;1.80;1.70;;;13.20;99.90;;;;;;492969;240;28282;-73
2022/06/08 04:25:09;;;;;;;2.73;1.83;;;13.20;99.90;;;;;;492962;240;28799;-73
2022/06/08 04:27:10;;;;;;;1.73;1.63;;;13.10;99.90;;;;;;492963;240;28122;-74
2022/06/08 04:29:12;;;;;;;2.00;1.90;;;13.10;99.90;;;;;;492929;240;28075;-75
2022/06/08 04:31:13;;;;;;;2.03;1.93;;;13.10;99.90;;;;;;493007;240;28133;-73
2022/06/08 04:33:14;;;;;;;2.03;1.90;;;13.10;99.90;;;;;;492948;240;28761;-73
2022/06/08 04:35:15;;;;;;;2.10;1.97;;;13.10;99.90;;;;;;492922;240;28751;-74
2022/06/08 04:37:17;;;;;;;2.13;1.90;;;13.10;99.90;;;;;;492969;240;28604;-73
2022/06/08 04:39:18;;;;;;;2.37;2.20;;;13.10;99.90;;;;;;493012;240;28145;-73
2022/06/08 04:41:19;;;;;;;2.87;2.00;;;13.10;99.90;;;;;;492948;240;28163;-74
2022/06/08 04:43:20;;;;;;;2.10;2.00;;;13.10;99.90;;;;;;492993;240;28103;-73
2022/06/08 04:45:22;;;;;;;1.90;1.80;;;13.10;99.90;;;;;;493033;240;28209;-74
2022/06/08 04:47:23;;;;;;;2.10;2.00;;;13.20;99.90;;;;;;493107;240;28217;-73
2022/06/08 04:49:24;;;;;;;2.50;2.30;;;13.30;99.90;;;;;;493031;240;28074;-73
2022/06/08 04:51:25;;;;;;;1.90;1.80;;;13.40;99.90;;;;;;493059;240;28121;-73
2022/06/08 04:53:28;;;;;;;2.00;1.80;;;;;;;;;;493081;240;28229;-72
2022/06/08 04:55:29;;;;;;;2.10;2.00;;;13.50;99.90;;;;;;493069;241;26610;-73
2022/06/08 04:57:33;;;;;;;2.00;1.90;;;13.60;99.90;;;;;;493052;240;28146;-73
2022/06/08 04:59:31;;;;;;;1.90;1.80;;;13.60;99.90;;;;;;492824;241;28187;-74
2022/06/08 05:01:33;;;;;;;2.00;1.90;;;13.50;99.90;;;;;;493109;240;28609;-75
2022/06/08 05:03:34;;;;;;;1.80;1.70;;;13.50;99.90;;;;;;493078;240;28248;-73
2022/06/08 05:05:35;;;;;;;1.80;1.70;;;13.60;99.90;;;;;;493057;240;28621;-73
2022/06/08 05:07:37;;;;;;;2.07;1.87;;;13.70;99.90;;;;;;493072;240;28670;-73
2022/06/08 05:09:38;;;;;;;1.83;1.73;;;13.70;99.90;;;;;;492866;237;28776;-73
2022/06/08 05:11:39;;;;;;;1.80;1.70;;;13.80;99.90;;;;;;494515;240;29249;-74
2022/06/08 05:13:40;;;;;;;1.93;1.83;;;13.80;99.90;;;;;;494529;240;28439;-73
2022/06/08 05:15:43;;;;;;;1.97;1.87;;;;;;;;;;494487;240;28433;-73
2022/06/08 05:17:44;;;;;;;2.00;1.90;;;13.80;99.90;;;;;;494450;240;26549;-75
2022/06/08 05:19:45;;;;;;;2.20;2.00;;;13.90;99.90;;;;;;494469;240;28881;-76
2022/06/08 05:21:46;;;;;;;2.40;2.00;;;13.90;99.90;;;;;;494556;240;28912;-73
2022/06/08 05:23:48;;;;;;;1.80;1.70;;;14.00;99.90;;;;;;494529;240;29023;-73
2022/06/08 05:25:49;;;;;;;2.10;1.90;;;14.00;99.90;;;;;;494521;240;28965;-73
2022/06/08 05:27:50;;;;;;;1.63;1.60;;;14.10;99.90;;;;;;494497;240;28445;-73
2022/06/08 05:29:52;;;;;;;1.87;1.70;;;14.10;99.90;;;;;;494674;240;28218;-75
2022/06/08 05:31:53;;;;;;;1.70;1.60;;;14.10;99.90;;;;;;494577;240;28328;-73
2022/06/08 05:33:57;;;;;;;1.90;1.80;;;14.20;99.90;;;;;;494637;240;28970;-74
2022/06/08 05:35:55;;;;;;;2.43;1.97;;;14.20;99.90;;;;;;494400;240;29073;-73
2022/06/08 05:37:57;;;;;;;1.80;1.80;;;14.30;99.90;;;;;;494624;240;28943;-73
2022/06/08 05:39:58;;;;;;;1.60;1.50;;;14.40;99.90;;;;;;494701;240;28335;-75
2022/06/08 05:41:59;;;;;;;1.83;1.73;;;14.50;99.90;;;;;;494552;240;28464;-73
2022/06/08 05:44:00;;;;;;;1.80;1.70;;;14.50;99.90;;;;;;494505;240;28554;-73
2022/06/08 05:46:02;;;;;;;1.90;1.80;;;14.60;99.90;;;;;;494557;240;28959;-74
2022/06/08 05:48:04;;;;;;;1.50;1.50;;;14.60;99.90;;;;;;494485;240;28465;-74
2022/06/08 05:50:04;;;;;;;1.70;1.60;;;14.70;99.90;;;;;;494589;240;28582;-75
2022/06/08 05:52:07;;;;;;;1.73;1.63;;;14.70;99.90;;;;;;494603;240;28721;-73
2022/06/08 05:54:07;;;;;;;2.17;2.07;;;14.80;99.90;;;;;;494545;240;29359;-74
2022/06/08 05:56:08;;;;;;;3.03;2.00;;;14.80;99.90;;;;;;494654;240;29268;-73
2022/06/08 05:58:09;;;;;;;2.10;2.00;;;14.80;99.90;;;;;;494624;240;29312;-73
2022/06/08 06:00:10;;;;;;;2.90;2.13;;;14.80;99.90;;;;;;494665;240;28928;-74
2022/06/08 06:02:12;;;;;;;2.00;1.90;;;14.70;99.90;;;;;;494556;240;28841;-72
2022/06/08 06:04:13;;;;;;;1.90;1.80;;;14.80;99.90;;;;;;494529;240;28757;-74
2022/06/08 06:06:14;;;;;;;2.90;2.17;;;14.90;99.90;;;;;;494543;240;28411;-73
2022/06/08 06:08:16;;;;;;;2.30;2.20;;;15.00;99.90;;;;;;494507;240;28829;-74
2022/06/08 06:10:17;;;;;;;2.10;2.00;;;15.10;99.90;;;;;;494647;240;28857;-73
2022/06/08 06:12:18;;;;;;;1.93;1.83;;;15.20;99.90;;;;;;494613;240;28944;-73
2022/06/08 06:14:19;;;;;;;2.27;2.00;;;15.30;99.90;;;;;;494631;240;28857;-73
2022/06/08 06:16:20;;;;;;;1.80;1.70;;;15.30;99.90;;;;;;494648;240;28805;-73
2022/06/08 06:18:22;;;;;;;2.30;2.10;;;15.30;99.90;;;;;;494676;240;29291;-73
2022/06/08 06:20:23;;;;;;;1.87;1.77;;;15.30;99.90;;;;;;494664;240;29432;-74
2022/06/08 06:22:25;;;;;;;2.17;1.90;;;15.30;99.90;;;;;;494602;240;29464;-74
2022/06/08 06:24:25;;;;;;;2.10;1.90;;;15.30;99.90;;;;;;494546;240;30327;-73
2022/06/08 06:26:27;;;;;;;2.80;1.90;;;15.30;99.90;;;;;;494614;240;28856;-73
2022/06/08 06:28:28;;;;;;;2.50;2.03;;;15.30;99.90;;;;;;494633;240;28839;-73
2022/06/08 06:30:29;;;;;;;2.73;2.30;;;15.40;99.90;;;;;;494674;240;28874;-76
2022/06/08 06:32:30;;;;;;;2.40;2.20;;;15.40;99.90;;;;;;494652;240;28905;-73
2022/06/08 06:34:32;;;;;;;3.60;2.50;;;15.50;99.90;;;;;;494661;240;28854;-74
2022/06/08 06:36:33;;;;;;;3.13;2.13;;;15.60;99.90;;;;;;494664;240;28964;-73
2022/06/08 06:38:34;;;;;;;2.60;2.40;;;15.70;99.90;;;;;;494699;240;28906;-73
2022/06/08 06:40:35;;;;;;;2.40;2.30;;;15.70;99.90;;;;;;494624;240;28854;-74
2022/06/08 06:42:37;;;;;;;4.47;3.10;;;15.80;99.90;;;;;;494582;240;29192;-73
2022/06/08 06:44:38;;;;;;;2.80;2.00;;;16.00;99.90;;;;;;494538;240;29350;-74
2022/06/08 06:46:39;;;;;;;1.80;1.70;;;16.00;99.90;;;;;;494569;240;28926;-75
2022/06/08 06:48:40;;;;;;;1.90;1.80;;;16.20;99.90;;;;;;494578;240;29292;-73
2022/06/08 06:50:42;;;;;;;2.13;1.70;;;16.20;99.90;;;;;;494676;240;29404;-74
2022/06/08 06:52:44;;;;;;;3.17;2.10;;;16.40;99.90;;;;;;494593;240;29325;-73
2022/06/08 06:54:44;;;;;;;2.80;1.70;;;16.50;99.90;;;;;;494568;240;28850;-74
2022/06/08 06:56:45;;;;;;;4.17;1.93;;;16.60;99.90;;;;;;494640;240;28947;-74
2022/06/08 06:58:48;;;;;;;2.93;2.10;;;16.80;99.90;;;;;;494696;240;28820;-72
2022/06/08 07:00:48;;;;;;;1.70;1.60;;;16.90;99.90;;;;;;494597;240;28955;-74
2022/06/08 07:02:49;;;;;;;1.80;1.70;;;16.90;99.90;;;;;;494512;240;28907;-74
2022/06/08 07:04:50;;;;;;;1.70;1.60;;;17.00;99.90;;;;;;494533;240;28884;-73
2022/06/08 07:06:53;;;;;;;1.50;1.40;;;17.10;99.90;;;;;;494593;240;29348;-76
2022/06/08 07:08:53;;;;;;;4.50;1.90;;;17.20;99.90;;;;;;494551;240;28886;-73
2022/06/08 07:13:14;;;;;;;1.73;1.57;;;17.50;99.90;;;;;;494632;240;29303;-73
2022/06/08 07:15:15;;;;;;;3.50;1.90;;;17.90;99.90;;;;;;494639;240;29357;-73
2022/06/08 07:17:16;;;;;;;2.10;1.60;;;18.10;99.90;;;;;;494684;240;28854;-74
2022/06/08 07:19:18;;;;;;;9.00;2.07;;;18.30;99.90;;;;;;494638;240;28817;-73
2022/06/08 07:21:19;;;;;;;2.00;1.70;;;18.40;99.90;;;;;;494601;240;28847;-73
2022/06/08 07:23:20;;;;;;;2.10;1.63;;;18.60;99.90;;;;;;494548;240;28835;-74
2022/06/08 07:25:21;;;;;;;2.50;2.10;;;18.70;99.90;;;;;;494592;240;28828;-73
2022/06/08 07:27:22;;;;;;;3.33;1.90;;;18.60;99.90;;;;;;494612;240;28924;-74
2022/06/08 07:29:24;;;;;;;1.80;1.70;;;18.60;99.90;;;;;;494544;240;28850;-73
2022/06/08 07:31:25;;;;;;;3.27;1.90;;;18.50;99.90;;;;;;494607;240;28872;-73
2022/06/08 07:33:26;;;;;;;2.13;1.80;;;18.60;99.90;;;;;;494651;240;29389;-74
2022/06/08 07:35:27;;;;;;;2.33;1.83;;;18.70;99.90;;;;;;494663;240;29379;-73
2022/06/08 07:37:29;;;;;;;2.83;1.80;;;18.60;99.90;;;;;;494642;240;29412;-74
2022/06/08 07:39:30;;;;;;;2.67;1.57;;;18.50;99.90;;;;;;494667;240;29268;-73
2022/06/08 07:41:31;;;;;;;2.30;2.00;;;18.60;99.90;;;;;;494643;240;28847;-74
2022/06/08 07:43:32;;;;;;;3.33;1.77;;;18.50;99.90;;;;;;494535;240;28844;-75
2022/06/08 07:45:34;;;;;;;3.83;1.60;;;18.40;99.90;;;;;;494542;240;28863;-74
2022/06/08 07:49:36;;;;;;;1.70;1.60;;;18.50;99.90;;;;;;494615;240;28847;-74
2022/06/08 07:49:41;;;;;;;1.77;1.63;;;18.40;99.90;;;;;;492497;240;28808;-73
2022/06/08 07:51:41;;;;;;;1.97;1.60;;;18.20;99.90;;;;;;494508;240;29208;-72
2022/06/08 07:53:42;;;;;;;2.03;1.73;;;18.30;99.90;;;;;;494682;240;28886;-72
2022/06/08 07:55:44;;;;;;;2.90;1.60;;;18.30;99.90;;;;;;494654;240;28885;-74
2022/06/08 07:57:47;;;;;;;4.80;2.37;;;18.40;99.90;;;;;;494595;240;28892;-73
2022/06/08 07:59:46;;;;;;;1.83;1.70;;;18.40;99.90;;;;;;494396;240;28859;-74
2022/06/08 08:01:47;;;;;;;2.90;1.60;;;18.50;99.90;;;;;;494616;240;29415;-75
2022/06/08 08:03:48;;;;;;;3.17;1.83;;;18.50;99.90;;;;;;494579;240;29372;-72
2022/06/08 08:05:49;;;;;;;3.53;2.00;;;18.60;99.90;;;;;;494622;240;29310;-73
2022/06/08 08:07:51;;;;;;;2.40;1.50;;;18.70;99.90;;;;;;494569;240;29260;-72
2022/06/08 08:09:52;;;;;;;2.43;1.70;;;18.80;99.90;;;;;;494629;240;28839;-73
2022/06/08 08:11:53;;;;;;;1.77;1.67;;;18.80;99.90;;;;;;494652;240;28937;-76
2022/06/08 08:13:54;;;;;;;2.27;1.60;;;19.00;99.90;;;;;;494699;240;28920;-73
2022/06/08 08:15:56;;;;;;;3.00;1.90;;;19.10;99.90;;;;;;494700;240;28846;-74
2022/06/08 08:17:57;;;;;;;1.60;1.50;;;19.10;99.90;;;;;;494681;240;28821;-73
2022/06/08 08:19:58;;;;;;;3.13;2.13;;;19.30;99.90;;;;;;494691;240;28882;-73
2022/06/08 08:21:59;;;;;;;3.83;2.40;;;19.40;99.90;;;;;;494645;240;28929;-76
2022/06/08 08:24:01;;;;;;;3.53;2.03;;;19.40;99.90;;;;;;494520;240;28926;-75
2022/06/08 08:26:02;;;;;;;3.13;1.90;;;19.10;99.90;;;;;;494608;240;29338;-72
2022/06/08 08:28:03;;;;;;;2.33;1.50;;;19.00;99.90;;;;;;494525;240;29854;-73
2022/06/08 08:30:04;;;;;;;2.50;1.60;;;18.90;99.90;;;;;;494646;240;29388;-73
2022/06/08 08:32:07;;;;;;;2.70;1.80;;;18.80;99.90;;;;;;494622;240;29355;-73
2022/06/08 08:34:07;;;;;;;3.30;1.87;;;18.70;99.90;;;;;;494567;240;28826;-74
2022/06/08 08:36:08;;;;;;;4.17;2.00;;;18.90;99.90;;;;;;494635;240;28853;-72
2022/06/08 08:38:09;;;;;;;2.83;1.80;;;19.10;99.90;;;;;;494630;240;28941;-73
2022/06/08 08:40:11;;;;;;;3.27;1.87;;;19.30;99.90;;;;;;494687;240;28781;-74
2022/06/08 08:42:21;;;;;;;3.27;1.57;;;19.40;99.90;;;;;;494616;240;28861;-74
2022/06/08 08:44:22;;;;;;;2.40;1.63;;;19.30;99.90;;;;;;494571;240;29358;-74
2022/06/08 08:46:24;;;;;;;3.47;1.53;;;19.30;99.90;;;;;;494607;240;29461;-73
2022/06/08 08:48:25;;;;;;;3.33;1.90;;;19.40;99.90;;;;;;494573;240;29478;-73
2022/06/08 08:50:26;;;;;;;5.10;1.90;;;19.50;99.90;;;;;;494653;240;28854;-76
2022/06/08 08:52:27;;;;;;;2.67;1.47;;;19.40;99.90;;;;;;494620;240;28811;-73
2022/06/08 08:54:28;;;;;;;1.73;1.60;;;19.60;99.90;;;;;;494655;240;28880;-74
2022/06/08 08:56:30;;;;;;;3.77;1.53;;;19.80;99.90;;;;;;494646;240;28810;-73
2022/06/08 08:58:31;;;;;;;3.07;1.60;;;19.80;99.90;;;;;;494634;240;28838;-73
2022/06/08 09:00:36;;;;;;;1.60;1.50;;;19.90;99.90;;;;;;494318;240;28887;-75
2022/06/08 09:04:53;;;;;;;3.53;1.60;;;20.10;99.90;;;;;;495770;237;28786;-73
2022/06/08 09:06:54;;;;;;;2.10;1.50;;;20.20;99.90;;;;;;497109;239;28839;-76
2022/06/08 09:08:58;;;;;;;1.70;1.60;;;20.30;99.90;;;;;;497084;239;28756;-75
2022/06/08 09:10:57;;;;;;;1.77;1.67;;;20.40;99.90;;;;;;496966;239;28893;-74
2022/06/08 09:12:58;;;;;;;2.30;1.63;;;20.50;99.90;;;;;;497173;239;28858;-73
2022/06/08 09:15:00;;;;;;;3.97;1.93;;;20.60;99.90;;;;;;494896;239;29284;-74
2022/06/08 09:17:01;;;;;;;1.47;1.37;;;20.70;99.90;;;;;;494171;240;29259;-74
2022/06/08 09:19:02;;;;;;;2.43;1.40;;;20.70;99.90;;;;;;494167;240;29281;-73
2022/06/08 09:21:03;;;;;;;5.03;1.70;;;20.60;99.90;;;;;;494145;240;28913;-72
2022/06/08 09:23:04;;;;;;;3.03;1.80;;;20.50;99.90;;;;;;494236;240;28739;-72
2022/06/08 09:25:07;;;;;;;2.30;2.10;;;20.50;99.90;;;;;;494181;240;28693;-73
2022/06/08 09:27:07;;;;;;;5.73;2.70;;;20.30;99.90;;;;;;493965;240;28859;-74
2022/06/08 09:29:08;;;;;;;2.72;1.60;;;20.00;99.90;;;;;;490941;240;36079;-72
2022/06/08 09:31:09;;;;;;;2.03;1.90;;;19.90;99.90;;;;;;494111;240;27507;-74
2022/06/08 09:33:11;;;;;;;1.50;1.40;;;19.90;99.90;;;;;;494065;240;28847;-75
2022/06/08 09:35:12;;;;;;;2.10;1.90;;;20.00;99.90;;;;;;494279;240;28706;-73
2022/06/08 09:37:13;;;;;;;4.30;1.50;;;20.00;99.90;;;;;;494191;240;28748;-74
2022/06/08 09:39:14;;;;;;;2.17;1.93;;;20.00;99.90;;;;;;494173;240;29308;-73
2022/06/08 09:41:16;;;;;;;4.40;1.90;;;20.30;99.90;;;;;;494096;240;29403;-72
2022/06/08 09:43:17;;;;;;;4.50;1.70;;;20.50;99.90;;;;;;494182;240;29495;-73
2022/06/08 09:45:18;;;;;;;3.50;1.60;;;20.40;99.90;;;;;;493587;240;28936;-72
2022/06/08 09:51:58;;;;;;;1.63;1.53;;;20.40;99.90;;;;;;494279;240;28707;-73
2022/06/08 09:54:00;;;;;;;2.37;1.63;;;20.30;99.90;;;;;;494270;240;28758;-73
2022/06/08 09:56:01;;;;;;;2.23;1.60;;;20.10;99.90;;;;;;494199;240;29165;-74
2022/06/08 09:58:02;;;;;;;3.77;1.63;;;19.90;99.90;;;;;;494137;240;29331;-73
2022/06/08 10:00:03;;;;;;;4.53;2.03;;;19.70;99.90;;;;;;494261;240;29313;-75
2022/06/08 10:02:05;;;;;;;1.40;1.30;;;19.40;99.90;;;;;;494112;240;28818;-73
2022/06/08 10:04:06;;;;;;;1.70;1.60;;;19.30;99.90;;;;;;494205;240;28762;-73
2022/06/08 10:06:07;;;;;;;2.97;1.70;;;19.20;99.90;;;;;;494246;240;28686;-73
2022/06/08 10:08:08;;;;;;;1.60;1.50;;;19.10;99.90;;;;;;494278;240;28730;-73
2022/06/08 10:10:10;;;;;;;1.70;1.60;;;19.10;99.90;;;;;;494258;240;28738;-75
2022/06/08 10:12:12;;;;;;;2.20;2.00;;;19.00;99.90;;;;;;494276;240;28700;-73
2022/06/08 10:14:12;;;;;;;2.30;1.37;;;18.90;99.90;;;;;;494200;240;28823;-72
2022/06/08 10:16:13;;;;;;;1.90;1.70;;;18.90;99.90;;;;;;494270;240;28792;-72
2022/06/08 10:18:15;;;;;;;3.03;1.73;;;18.90;99.90;;;;;;494235;240;28819;-73
2022/06/08 10:20:16;;;;;;;2.80;1.67;;;18.80;99.90;;;;;;494248;240;29196;-74
2022/06/08 10:22:17;;;;;;;1.90;1.60;;;18.80;99.90;;;;;;494254;240;29164;-73
2022/06/08 10:24:18;;;;;;;1.40;1.30;;;18.90;99.90;;;;;;494199;240;29335;-73
2022/06/08 10:26:20;;;;;;;1.73;1.63;;;18.90;99.90;;;;;;494246;240;28703;-73
2022/06/08 10:28:22;;;;;;;1.60;1.50;;;18.80;99.90;;;;;;494295;240;28776;-73
2022/06/08 10:30:22;;;;;;;3.40;1.70;;;18.80;99.90;;;;;;494230;240;28728;-75
2022/06/08 10:32:24;;;;;;;1.70;1.60;;;18.70;99.90;;;;;;494295;240;28691;-72
2022/06/08 10:34:27;;;;;;;1.70;1.60;;;18.70;99.90;;;;;;494243;240;28805;-73
2022/06/08 10:36:26;;;;;;;2.43;1.63;;;18.70;99.90;;;;;;494170;240;28795;-73
2022/06/08 10:38:27;;;;;;;1.83;1.73;;;18.70;99.90;;;;;;494294;240;28700;-73
2022/06/08 10:40:29;;;;;;;1.60;1.50;;;18.60;99.90;;;;;;494229;240;28865;-73
2022/06/08 10:42:43;;;;;;;1.70;1.60;;;18.60;99.90;;;;;;494264;240;28799;-72
2022/06/08 10:44:43;;;;;;;1.50;1.40;;;18.60;99.90;;;;;;494158;240;28735;-72
2022/06/08 10:46:45;;;;;;;3.53;1.77;;;18.70;99.90;;;;;;494265;240;28730;-75